Latest Weather Observations for Montague Island

IDN60801

Issued at 7:02 pm EST Sunday 24 May 2015 (issued every 30 minutes, with the page automatically refreshed every 10 minutes)

About weather observations | Map of weather stations | Latest weather observations for NSW | Other Formats
Station Details ID: 069017 Name: MONTAGUE ISLAND LIGHTHOUSE Lat: -36.25 Lon: 150.23 Height: 52.0 m
Data from the previous 72 hours. | See also: Recent months at Montague Island
Date/Time
EST
Temp
°C
App
Temp
°C
Dew
Point
Rel
Hum
%
Delta-T
°C
Wind Press
QNH
hPa
Press
MSL
hPa
Rain
since 9 am
mm
Dir
 
Spd
km/h
Gust
km/h
Spd
kts
Gust
kts
24/07:00pm 14.4 12.0 7.2 62 3.5 NNE 9 13 5 7 1031.4 1031.4 0.0
24/06:30pm 14.3 12.3 6.9 61 3.6 NNE 7 9 4 5 1031.4 1031.4 0.0
24/06:00pm 14.5 12.9 7.8 64 3.3 NE 6 13 3 7 1031.2 1031.2 0.0
24/05:30pm 14.5 12.7 7.3 62 3.5 NNE 6 9 3 5 1031.1 1031.1 0.0
24/05:00pm 14.4 12.7 7.5 63 3.4 ENE 6 9 3 5 1030.8 1030.8 0.0
24/04:30pm 14.6 13.2 7.2 61 3.6 NE 4 7 2 4 1030.7 1030.7 0.0
24/04:00pm 14.7 12.9 7.3 61 3.6 NE 6 9 3 5 1030.7 1030.7 0.0
24/03:30pm 15.3 13.8 6.8 57 4.2 ENE 4 7 2 4 1030.5 1030.5 0.0
24/03:00pm 15.7 13.8 6.7 55 4.4 ENE 6 9 3 5 1030.4 1030.4 0.0
24/02:30pm 16.0 14.0 6.4 53 4.7 NE 6 9 3 5 1030.5 1030.5 0.0
24/02:00pm 16.3 14.7 6.4 52 4.8 NNE 4 7 2 4 1030.4 1030.4 0.0
24/01:30pm 16.6 14.7 6.7 52 4.9 WNW 6 13 3 7 1030.6 1030.6 0.0
24/01:00pm 16.2 14.7 6.6 53 4.7 NW 4 11 2 6 1030.7 1030.7 0.0
24/12:30pm 16.3 14.1 6.4 52 4.8 WNW 7 15 4 8 1030.8 1030.8 0.0
24/12:00pm 16.2 13.3 6.3 52 4.8 WNW 11 17 6 9 1031.1 1031.1 0.0
24/11:30am 15.8 12.9 6.5 54 4.5 W 11 15 6 8 1031.3 1031.3 0.0
24/11:00am 15.1 11.3 7.4 60 3.8 WNW 17 20 9 11 1031.7 1031.7 0.0
24/10:30am 14.4 10.6 7.7 64 3.3 W 17 20 9 11 1032.1 1032.1 0.0
24/10:00am 13.8 10.2 8.2 69 2.8 W 17 20 9 11 1032.3 1032.3 0.0
24/09:30am 12.7 9.4 8.0 73 2.3 W 15 19 8 10 1032.2 1032.2 0.0
24/08:30am 11.6 7.9 7.9 78 1.8 W 17 20 9 11 1032.1 1032.1 0.0
24/08:00am 11.2 7.9 8.1 81 1.5 W 15 19 8 10 1031.8 1031.8 0.0
24/07:30am 10.6 6.3 6.9 78 1.8 W 19 22 10 12 1031.5 1031.5 0.0
24/07:00am 11.4 5.6 6.3 71 2.4 WSW 26 33 14 18 1031.2 1031.2 0.0
24/06:30am 11.3 5.6 6.6 73 2.2 SW 26 32 14 17 1030.9 1030.9 0.0
24/06:00am 11.6 6.0 7.1 74 2.1 WSW 26 33 14 18 1030.6 1030.6 0.0
24/05:30am 11.2 4.8 6.9 75 2.0 SW 30 35 16 19 1030.3 1030.3 0.0
24/05:00am 11.3 5.2 6.8 74 2.1 SW 28 37 15 20 1030.2 1030.2 0.0
24/04:30am 11.3 5.3 7.0 75 2.1 SW 28 37 15 20 1030.2 1030.2 0.0
24/04:00am 11.3 5.4 7.4 77 1.9 SW 28 35 15 19 1030.0 1030.0 0.0
24/03:30am 11.2 5.7 7.5 78 1.8 SW 26 33 14 18 1030.0 1030.0 0.0
24/03:00am 11.2 5.7 7.7 79 1.7 SSW 26 33 14 18 1030.1 1030.1 0.0
24/02:30am 11.3 5.9 8.2 81 1.5 SSW 26 32 14 17 1029.9 1029.9 0.0
24/02:00am 11.4 6.2 9.0 85 1.2 SSW 26 32 14 17 1029.9 1029.9 0.0
24/01:30am 11.6 6.1 9.0 84 1.3 SW 28 33 15 18 1030.0 1030.0 0.0
24/01:00am 11.4 5.9 9.0 85 1.2 SW 28 33 15 18 1029.8 1029.8 0.0
24/12:30am 11.3 6.2 9.2 87 1.1 SW 26 33 14 18 1030.0 1030.0 0.0
24/12:00am 11.4 6.1 9.7 89 0.9 SW 28 32 15 17 1030.1 1030.1 0.0
 
Date/Time
EST
Temp
°C
App
Temp
°C
Dew
Point
Rel
Hum
%
Delta-T
°C
Wind Press
QNH
hPa
Press
MSL
hPa
Rain
since 9 am
mm
Dir
 
Spd
km/h
Gust
km/h
Spd
kts
Gust
kts
23/11:30pm 11.8 6.9 9.9 88 1.0 SW 26 32 14 17 1030.0 1030.0 0.0
23/11:00pm 12.3 8.2 10.0 86 1.2 SW 22 26 12 14 1029.9 1029.9 0.0
23/10:30pm 12.6 9.1 10.1 85 1.3 SSW 19 22 10 12 1030.0 1030.0 0.0
23/10:00pm 12.6 9.4 10.1 85 1.3 SSW 17 20 9 11 1030.0 1030.0 0.0
23/09:30pm 12.7 9.5 9.9 83 1.4 SW 17 20 9 11 1030.0 1030.0 0.0
23/09:00pm 12.9 9.5 9.0 77 2.0 SW 17 22 9 12 1029.9 1029.9 0.0
23/08:30pm 13.0 9.9 8.7 75 2.2 SW 15 19 8 10 1029.8 1029.8 0.0
23/08:00pm 13.0 10.2 8.5 74 2.2 WSW 13 17 7 9 1029.7 1029.7 0.0
23/07:30pm 13.2 10.3 8.3 72 2.4 WSW 13 17 7 9 1029.7 1029.7 0.0
23/07:00pm 13.4 10.6 7.0 65 3.1 SSW 11 17 6 9 1029.6 1029.6 0.0
23/06:30pm 13.3 10.5 6.9 65 3.1 SSW 11 17 6 9 1029.5 1029.5 0.0
23/06:00pm 13.2 10.3 6.3 63 3.3 SSW 11 17 6 9 1029.4 1029.4 0.0
23/05:30pm 13.3 10.3 5.9 61 3.5 S 11 17 6 9 1029.3 1029.3 0.0
23/05:00pm 13.8 10.8 6.2 60 3.6 S 11 17 6 9 1029.1 1029.1 0.0
23/04:30pm 13.6 10.1 5.5 58 3.8 SSE 13 17 7 9 1028.8 1028.8 0.0
23/04:00pm 13.9 9.7 5.8 58 3.8 SE 17 22 9 12 1028.8 1028.8 0.0
23/03:30pm 13.9 9.3 6.3 60 3.6 SE 20 28 11 15 1028.7 1028.7 0.0
23/03:00pm 14.3 9.4 7.1 62 3.5 SSE 22 32 12 17 1028.6 1028.6 0.0
23/02:30pm 14.6 10.5 6.4 58 4.0 S 17 26 9 14 1028.4 1028.4 0.0
23/02:00pm 14.7 10.0 6.0 56 4.1 S 20 30 11 16 1028.3 1028.3 0.0
23/01:30pm 14.5 7.6 4.8 52 4.5 S 30 39 16 21 1028.3 1028.3 0.0
23/01:00pm 14.7 8.7 5.2 53 4.4 S 26 35 14 19 1028.6 1028.6 0.0
23/12:30pm 14.3 6.8 6.2 58 3.9 S 35 43 19 23 1028.8 1028.8 0.0
23/12:00pm 14.3 7.2 6.2 58 3.9 S 33 46 18 25 1029.2 1029.2 0.0
23/11:30am 14.5 8.0 6.6 59 3.8 S 30 43 16 23 1029.7 1029.7 0.0
23/11:00am 14.4 9.8 6.5 59 3.8 S 20 28 11 15 1030.1 1030.1 0.0
23/10:30am 13.6 8.4 5.3 57 3.9 SSW 22 32 12 17 1030.3 1030.3 0.0
23/10:00am 14.0 8.3 5.1 55 4.1 SW 24 30 13 16 1030.4 1030.4 0.0
23/09:30am 13.4 7.9 5.8 60 3.6 SW 24 32 13 17 1030.2 1030.2 0.0
23/09:00am 13.1 7.6 5.8 61 3.4 SW 24 30 13 16 1030.0 1030.0 4.0
23/08:30am 12.3 5.3 6.1 66 2.9 SW 32 37 17 20 1029.6 1029.6 4.0
23/08:00am 12.0 5.2 6.9 71 2.4 SW 32 39 17 21 1029.5 1029.5 4.0
23/07:30am 11.7 4.6 6.6 71 2.4 SW 33 41 18 22 1029.3 1029.3 4.0
23/07:00am 12.1 5.4 5.7 65 3.0 SW 30 39 16 21 1029.0 1029.0 4.0
23/06:30am 12.3 5.1 5.9 65 3.0 SW 33 41 18 22 1028.7 1028.7 4.0
23/06:00am 12.2 6.0 6.0 66 2.9 SW 28 39 15 21 1028.3 1028.3 4.0
23/05:30am 12.3 5.3 6.1 66 2.9 SW 32 39 17 21 1028.1 1028.1 4.0
23/05:00am 12.4 5.2 6.0 65 3.0 WSW 33 43 18 23 1027.8 1027.8 4.0
23/04:30am 12.5 5.5 6.8 68 2.7 SW 33 43 18 23 1027.7 1027.7 4.0
23/04:00am 12.5 5.0 6.5 67 2.8 SW 35 43 19 23 1027.5 1027.5 4.0
23/03:30am 12.8 5.9 6.6 66 3.0 SW 32 39 17 21 1027.5 1027.5 4.0
23/03:00am 12.6 5.5 6.2 65 3.0 WSW 33 43 18 23 1027.4 1027.4 4.0
23/02:30am 12.7 5.6 6.5 66 3.0 WSW 33 43 18 23 1027.5 1027.5 4.0
23/02:00am 12.6 6.1 6.4 66 2.9 WSW 30 37 16 20 1028.0 1028.0 4.0
23/01:30am 12.7 6.1 6.1 64 3.1 WSW 30 41 16 22 1027.9 1027.9 4.0
23/01:00am 12.5 5.3 6.1 65 3.0 WSW 33 43 18 23 1027.8 1027.8 4.0
23/12:30am 12.5 4.3 6.5 67 2.9 WSW 39 46 21 25 1027.8 1027.8 4.0
23/12:00am 12.4 3.4 6.5 67 2.8 WSW 43 52 23 28 1027.8 1027.8 4.0
 
Date/Time
EST
Temp
°C
App
Temp
°C
Dew
Point
Rel
Hum
%
Delta-T
°C
Wind Press
QNH
hPa
Press
MSL
hPa
Rain
since 9 am
mm
Dir
 
Spd
km/h
Gust
km/h
Spd
kts
Gust
kts
22/11:30pm 12.2 3.0 6.5 68 2.7 SW 44 54 24 29 1028.0 1028.0 4.0
22/11:00pm 12.3 1.7 6.8 69 2.6 SW 52 63 28 34 1027.6 1027.6 4.0
22/10:30pm 12.7 2.6 7.4 70 2.6 SW 50 63 27 34 1027.4 1027.4 4.0
22/10:00pm 12.7 1.3 6.7 67 2.9 SW 56 69 30 37 1027.4 1027.4 4.0
22/09:30pm 12.7 1.4 7.2 69 2.7 SW 56 72 30 39 1027.2 1027.2 4.0
22/09:00pm 12.7 3.2 8.4 75 2.1 SW 48 63 26 34 1027.1 1027.1 4.0
22/08:30pm 12.9 2.9 8.0 72 2.4 SW 50 61 27 33 1027.0 1027.0 4.0
22/08:00pm 12.9 4.5 8.8 76 2.0 SW 43 56 23 30 1026.9 1026.9 4.0
22/07:30pm 12.9 5.5 9.7 81 1.6 SW 39 52 21 28 1026.9 1026.9 4.0
22/07:00pm 13.1 3.9 9.4 78 1.9 SW 48 61 26 33 1026.5 1026.5 4.0
22/06:30pm 12.9 3.0 9.9 82 1.5 SW 52 67 28 36 1026.0 1026.0 4.0
22/06:00pm 12.9 3.9 10.4 85 1.3 SSW 48 67 26 36 1025.7 1025.7 4.0
22/05:30pm 12.6 3.4 10.8 89 0.9 SSW 50 70 27 38 1025.3 1025.3 4.0
22/05:27pm 13.6 4.9 11.3 86 1.2 SSW 48 67 26 36 1025.3 1025.3 3.8
22/05:00pm 13.6 4.8 11.1 85 1.3 SSW 48 59 26 32 1025.1 1025.1 3.8
22/04:30pm 12.8 5.1 12.0 95 0.4 S 44 57 24 31 1025.0 1025.0 3.6
22/04:08pm 13.4 6.0 12.3 93 0.6 SSW 43 65 23 35 1024.6 1024.6 3.0
22/04:00pm 13.0 5.2 11.9 93 0.6 SSW 44 57 24 31 1024.6 1024.6 3.0
22/03:30pm 14.4 6.3 10.2 76 2.2 SSW 43 52 23 28 1024.3 1024.3 1.6
22/03:18pm 14.6 6.9 10.2 75 2.3 SSW 41 61 22 33 1024.3 1024.3 1.6
22/03:00pm 14.4 5.8 10.2 76 2.2 SSW 46 61 25 33 1024.1 1024.1 1.6
22/02:40pm 14.1 5.6 10.5 79 1.9 SSW 46 65 25 35 1024.1 1024.1 1.6
22/02:30pm 14.8 5.8 10.4 75 2.3 SSW 48 61 26 33 1023.9 1023.9 1.6
22/02:00pm 14.5 5.0 9.9 74 2.4 SSW 50 65 27 35 1023.7 1023.7 1.6
22/01:30pm 15.0 5.3 10.4 74 2.4 SSW 52 65 28 35 1023.6 1023.6 1.6
22/01:00pm 14.2 3.3 9.6 74 2.4 SSW 57 72 31 39 1023.4 1023.4 1.6
22/12:30pm 14.6 4.2 9.2 70 2.8 SSW 54 72 29 39 1023.3 1023.2 1.6
22/12:18pm 14.4 3.7 9.6 73 2.5 SSW 56 74 30 40 1023.5 1023.5 1.6
22/12:00pm 14.4 3.2 10.0 75 2.3 SSW 59 74 32 40 1023.2 1023.1 1.6
22/11:30am 13.3 2.4 10.8 85 1.3 SSW 59 78 32 42 1023.5 1023.5 1.6
22/11:00am 12.1 2.2 11.0 93 0.6 SSW 54 78 29 42 1024.0 1024.0 1.0
22/10:30am 12.2 2.3 11.1 93 0.6 SSW 54 72 29 39 1023.9 1023.9 0.6
22/10:00am 12.7 2.1 10.8 88 1.0 SW 57 76 31 41 1023.5 1023.5 0.0
22/09:33am 13.5 4.5 10.3 81 1.7 SW 48 67 26 36 1023.1 1023.0 0.0
22/09:30am 13.5 3.8 10.3 81 1.7 SW 52 67 28 36 1023.1 1023.0 0.0
22/09:05am 13.8 4.8 10.2 79 1.9 SW 48 69 26 37 1022.8 1022.7 0.0
22/09:00am 13.8 4.3 9.8 77 2.1 SSW 50 65 27 35 1022.8 1022.7 34.0
22/08:30am 13.6 3.1 10.4 81 1.7 SW 56 76 30 41 1022.3 1022.2 34.0
22/08:27am 13.4 2.9 10.2 81 1.7 SW 56 76 30 41 1022.3 1022.2 34.0
22/08:00am 13.9 4.4 11.1 83 1.5 SSW 52 70 28 38 1021.9 1021.8 34.0
22/07:37am 13.8 3.1 11.7 87 1.1 SSW 59 78 32 42 1021.5 1021.4 34.0
22/07:30am 13.6 2.0 11.1 85 1.3 SSW 63 78 34 42 1021.4 1021.3 33.8
22/07:17am 14.3 4.6 11.8 85 1.3 SSW 54 74 29 40 1020.8 1020.7 33.8
22/07:00am 15.1 4.4 11.5 79 1.9 S 59 72 32 39 1021.0 1020.9 33.8
22/06:34am 14.8 4.4 12.7 87 1.2 S 59 80 32 43 1020.4 1020.3 33.8
22/06:30am 14.7 4.8 12.9 89 1.0 SSW 57 72 31 39 1020.4 1020.3 33.8
22/06:10am 13.8 5.3 13.3 97 0.3 S 50 67 27 36 1020.0 1019.9 33.6
22/06:00am 14.1 6.1 13.6 97 0.3 SSE 48 67 26 36 1020.5 1020.4 33.2
22/05:30am 13.8 3.9 13.0 95 0.4 SSE 57 72 31 39 1019.7 1019.6 33.0
22/05:00am 13.6 2.5 12.7 94 0.5 SSE 63 76 34 41 1019.4 1019.3 32.2
22/04:30am 15.3 5.4 13.0 86 1.3 SSE 57 83 31 45 1018.8 1018.7 31.8
22/04:29am 15.9 6.3 13.4 85 1.4 SSE 56 76 30 41 1019.0 1018.9 31.8
22/04:00am 15.4 5.0 12.5 83 1.6 SSE 59 67 32 36 1018.8 1018.7 31.6
22/03:30am 15.0 5.0 13.7 92 0.7 SSE 59 69 32 37 1019.0 1018.9 31.6
22/03:27am 14.9 5.3 13.8 93 0.6 SSE 57 69 31 37 1018.9 1018.8 31.6
22/03:08am 14.7 9.5 14.5 99 0.1 SW 35 59 19 32 1019.1 1019.0 31.4
22/03:00am 13.6 7.6 13.3 98 0.2 SW 37 46 20 25 1019.5 1019.4 31.2
22/02:30am 13.7 8.4 13.2 97 0.3 SW 33 43 18 23 1019.5 1019.4 31.0
22/02:00am 14.4 10.0 14.2 99 0.1 SSE 30 43 16 23 1019.9 1019.8 30.0
22/01:30am 13.9 8.8 13.7 99 0.1 S 33 43 18 23 1020.0 1019.9 27.2
22/01:24am 13.7 8.5 13.5 99 0.1 SSW 33 43 18 23 1020.0 1019.9 26.6
22/01:00am 13.5 7.9 13.3 99 0.1 SW 35 46 19 25 1019.8 1019.7 22.6
22/12:30am 13.1 6.6 12.8 98 0.2 SW 39 46 21 25 1019.9 1019.8 20.0
22/12:00am 13.4 8.1 13.1 98 0.2 SSW 33 44 18 24 1020.1 1020.0 18.2
 
Date/Time
EST
Temp
°C
App
Temp
°C
Dew
Point
Rel
Hum
%
Delta-T
°C
Wind Press
QNH
hPa
Press
MSL
hPa
Rain
since 9 am
mm
Dir
 
Spd
km/h
Gust
km/h
Spd
kts
Gust
kts
21/11:30pm 13.9 7.3 13.7 99 0.1 SSW 41 50 22 27 1019.9 1019.8 16.2
21/11:00pm 13.8 6.8 13.6 99 0.1 SW 43 54 23 29 1020.2 1020.1 12.2
21/10:30pm 13.8 5.0 13.5 98 0.2 SSW 52 65 28 35 1019.8 1019.7 9.0
21/10:00pm 13.8 5.7 13.3 97 0.3 SSW 48 65 26 35 1019.5 1019.4 5.0
21/09:56pm 14.2 6.6 13.7 97 0.3 SSW 46 57 25 31 1019.7 1019.6 4.2
21/09:30pm 13.5 5.5 12.4 93 0.6 SW 46 56 25 30 1019.8 1019.7 0.6
21/09:00pm 14.0 6.4 12.4 90 0.9 SSW 44 56 24 30 1019.9 1019.8 0.0
21/08:30pm 14.4 6.8 12.3 87 1.1 SSW 44 59 24 32 1019.7 1019.6 0.0
21/08:00pm 15.0 7.7 11.6 80 1.8 SSW 41 56 22 30 1019.5 1019.4 0.0
21/07:30pm 15.5 9.2 11.1 75 2.4 SSW 35 44 19 24 1019.6 1019.5 0.0

Other Formats:

Comma delimited format used in spreadsheet applications
http://www.bom.gov.au/fwo/IDN60801/IDN60801.94939.axf

JavaScript Object Notation format (JSON) in row-major order
http://www.bom.gov.au/fwo/IDN60801/IDN60801.94939.json